createdAt,value
2019-02-10T00:04:03.137Z,100161.28
2019-02-10T00:08:07.468Z,100155.32
2019-02-10T00:12:12.110Z,100168.58
2019-02-10T00:16:21.545Z,100164.04
2019-02-10T00:20:25.743Z,100148.61
2019-02-10T00:24:29.922Z,100140.43
2019-02-10T00:28:34.131Z,100136.50
2019-02-10T00:32:38.295Z,100144.01
2019-02-10T00:36:43.347Z,100140.67
2019-02-10T00:40:47.634Z,100133.80
2019-02-10T00:44:52.476Z,100144.22
2019-02-10T00:48:57.063Z,100149.27
2019-02-10T00:53:01.270Z,100164.22
2019-02-10T00:57:06.105Z,100170.02
2019-02-10T01:01:10.340Z,100156.89
2019-02-10T01:05:14.549Z,100159.48
2019-02-10T01:09:19.575Z,100145.23
2019-02-10T01:13:23.776Z,100162.81
2019-02-10T01:17:28.005Z,100157.91
2019-02-10T01:21:32.585Z,100160.88
2019-02-10T01:25:36.904Z,100155.37
2019-02-10T01:29:41.102Z,100154.95
2019-02-10T01:33:45.677Z,100148.14
2019-02-10T01:37:49.904Z,100149.08
2019-02-10T01:41:54.084Z,100136.07
2019-02-10T01:46:00.338Z,100132.70
2019-02-10T01:50:06.475Z,100127.41
2019-02-10T01:54:11.578Z,100120.53
2019-02-10T01:58:15.788Z,100114.56
2019-02-10T02:02:20.021Z,100101.92
2019-02-10T02:06:24.256Z,100094.78
2019-02-10T02:10:28.498Z,100097.77
2019-02-10T02:14:32.679Z,100082.53
2019-02-10T02:18:36.957Z,100084.06
2019-02-10T02:22:41.178Z,100078.65
2019-02-10T02:26:45.371Z,100074.63
2019-02-10T02:30:49.923Z,100069.42
2019-02-10T02:34:54.140Z,100061.05
2019-02-10T02:38:58.320Z,100064.88
2019-02-10T02:43:02.777Z,100071.73
2019-02-10T02:47:06.991Z,100069.40
2019-02-10T02:51:11.219Z,100066.88
2019-02-10T02:55:15.470Z,100058.43
2019-02-10T02:59:20.012Z,100056.51
2019-02-10T03:03:24.226Z,100051.25
2019-02-10T03:07:28.432Z,100051.19
2019-02-10T03:11:32.650Z,100060.77
2019-02-10T03:15:36.851Z,100061.25
2019-02-10T03:19:41.073Z,100049.02
2019-02-10T03:23:45.652Z,100051.02
2019-02-10T03:27:49.829Z,100034.52
2019-02-10T03:31:54.035Z,100037.91
2019-02-10T03:35:58.233Z,100023.68
2019-02-10T03:40:02.446Z,100022.02
2019-02-10T03:44:06.695Z,100027.22
2019-02-10T03:48:10.887Z,100016.25
2019-02-10T03:52:15.071Z,100018.36
2019-02-10T03:56:19.660Z,100019.66
2019-02-10T04:00:23.859Z,100025.80
2019-02-10T04:04:28.077Z,100015.34
2019-02-10T04:08:32.253Z,100023.84
2019-02-10T04:12:36.468Z,100023.65
2019-02-10T04:16:40.685Z,100023.42
2019-02-10T04:20:44.863Z,100014.27
2019-02-10T04:24:49.078Z,100008.06
2019-02-10T04:28:53.299Z,100007.34
2019-02-10T04:32:57.453Z,99995.95
2019-02-10T04:37:01.663Z,99996.41
2019-02-10T04:41:05.888Z,99993.06
2019-02-10T04:45:10.372Z,99985.08
2019-02-10T04:49:14.568Z,99977.45
2019-02-10T04:53:18.804Z,99971.52
2019-02-10T04:57:23.009Z,99961.78
2019-02-10T05:01:27.206Z,99963.56
2019-02-10T05:05:31.418Z,99958.02
2019-02-10T05:09:35.608Z,99957.78
2019-02-10T05:13:39.819Z,99950.00
2019-02-10T05:17:43.984Z,99953.41
2019-02-10T05:21:48.236Z,99953.27
2019-02-10T05:25:52.411Z,99945.19
2019-02-10T05:29:56.620Z,99940.36
2019-02-10T05:34:00.915Z,99941.49
2019-02-10T05:38:05.205Z,99932.64
2019-02-10T05:42:09.433Z,99935.55
2019-02-10T05:46:13.697Z,99929.27
2019-02-10T05:50:17.907Z,99917.22
2019-02-10T05:54:22.095Z,99913.62
2019-02-10T05:58:26.638Z,99907.23
2019-02-10T06:02:34.321Z,99914.53
2019-02-10T06:06:38.596Z,99917.13
2019-02-10T06:10:42.744Z,99919.43
2019-02-10T06:14:46.972Z,99908.27
2019-02-10T06:18:51.139Z,99915.53
2019-02-10T06:22:56.268Z,99915.69
2019-02-10T06:27:00.570Z,99915.84
2019-02-10T06:31:04.767Z,99916.41
2019-02-10T06:35:10.110Z,99915.84
2019-02-10T06:39:14.311Z,99913.62
2019-02-10T06:43:18.518Z,99909.28
2019-02-10T06:47:22.725Z,99909.06
2019-02-10T06:51:26.899Z,99903.88
2019-02-10T06:55:31.883Z,99891.19
2019-02-10T06:59:44.896Z,99894.07
2019-02-10T07:04:04.080Z,99886.36
2019-02-10T07:08:08.556Z,99888.40
2019-02-10T07:12:46.564Z,99888.33
2019-02-10T07:17:28.905Z,99879.32
2019-02-10T07:21:36.940Z,99870.81
2019-02-10T07:25:49.586Z,99862.09
2019-02-10T07:30:28.882Z,99852.81
2019-02-10T07:35:08.333Z,99847.56
2019-02-10T07:39:29.836Z,99828.47
2019-02-10T07:43:50.829Z,99835.04
2019-02-10T07:48:22.943Z,99818.83
2019-02-10T07:52:50.565Z,99819.60
2019-02-10T07:57:44.803Z,99828.05
2019-02-10T08:02:36.325Z,99831.13
2019-02-10T08:07:17.431Z,99817.18
2019-02-10T08:12:05.545Z,99815.80
2019-02-10T08:16:54.360Z,99805.56
2019-02-10T08:21:49.531Z,99793.59
2019-02-10T08:26:24.865Z,99778.20
2019-02-10T08:30:42.280Z,99782.94
2019-02-10T08:35:34.660Z,99751.98
2019-02-10T08:40:10.799Z,99743.66
2019-02-10T08:44:41.343Z,99731.23
2019-02-10T08:49:23.458Z,99720.87
2019-02-10T08:53:31.718Z,99720.15
2019-02-10T08:57:35.884Z,99712.80
2019-02-10T09:01:40.128Z,99706.08
2019-02-10T09:05:44.330Z,99689.16
2019-02-10T09:09:48.509Z,99680.51
2019-02-10T09:13:52.741Z,99670.55
2019-02-10T09:17:56.950Z,99669.26
2019-02-10T09:22:01.160Z,99673.60
2019-02-10T09:26:05.651Z,99670.71
2019-02-10T09:30:11.327Z,99674.36
2019-02-10T09:34:17.006Z,99656.15
2019-02-10T09:38:21.285Z,99640.20
2019-02-10T09:42:25.463Z,99636.70
2019-02-10T09:46:29.951Z,99617.30
2019-02-10T09:50:34.172Z,99628.53
2019-02-10T09:54:38.407Z,99618.18
2019-02-10T09:58:42.652Z,99602.29
2019-02-10T10:02:46.810Z,99590.25
2019-02-10T10:06:51.006Z,99578.16
2019-02-10T10:10:56.555Z,99574.33
2019-02-10T10:15:02.171Z,99563.77
2019-02-10T10:19:06.813Z,99557.08
2019-02-10T10:23:11.027Z,99552.94
2019-02-10T10:27:15.239Z,99544.98
2019-02-10T10:31:19.478Z,99550.82
2019-02-10T10:35:23.714Z,99534.09
2019-02-10T10:39:27.929Z,99524.69
2019-02-10T10:43:32.175Z,99521.38
2019-02-10T10:47:36.346Z,99503.27
2019-02-10T10:51:40.590Z,99483.06
2019-02-10T10:55:44.784Z,99476.46
2019-02-10T10:59:49.008Z,99460.52
2019-02-10T11:03:53.300Z,99442.40
2019-02-10T11:07:57.521Z,99435.59
2019-02-10T11:12:01.731Z,99436.98
2019-02-10T11:16:06.034Z,99429.85
2019-02-10T11:20:10.902Z,99411.92
2019-02-10T11:24:15.161Z,99401.59
2019-02-10T11:28:20.059Z,99372.75
2019-02-10T11:32:24.386Z,99334.19
2019-02-10T11:36:28.540Z,99321.25
2019-02-10T11:40:33.111Z,99296.14
2019-02-10T11:44:37.305Z,99268.45
2019-02-10T11:48:41.526Z,99263.83
2019-02-10T11:52:46.036Z,99247.57
2019-02-10T11:56:50.196Z,99231.69
2019-02-10T12:00:54.547Z,99226.20
2019-02-10T12:04:58.709Z,99222.43
2019-02-10T12:09:03.004Z,99208.33
2019-02-10T12:13:07.573Z,99179.44
2019-02-10T12:17:11.762Z,99177.00
2019-02-10T12:21:16.265Z,99162.48
2019-02-10T12:25:20.460Z,99139.30
2019-02-10T12:29:24.650Z,99139.14
2019-02-10T12:33:28.871Z,99120.66
2019-02-10T12:37:33.091Z,99101.81
2019-02-10T12:41:37.306Z,99076.89
2019-02-10T12:45:41.527Z,99065.83
2019-02-10T12:49:45.838Z,99046.58
2019-02-10T12:53:50.327Z,99020.81
2019-02-10T12:57:55.729Z,99012.81
2019-02-10T13:02:01.479Z,99012.19
2019-02-10T13:06:05.638Z,98988.56
2019-02-10T13:10:13.104Z,98981.88
2019-02-10T13:14:18.968Z,98968.67
2019-02-10T13:18:23.308Z,98965.94
2019-02-10T13:22:27.540Z,98957.52
2019-02-10T13:26:31.695Z,98958.17
2019-02-10T13:30:35.959Z,98950.56
2019-02-10T13:34:51.033Z,98938.53
2019-02-10T13:38:55.430Z,98930.86
2019-02-10T13:43:01.058Z,98916.23
2019-02-10T13:47:08.487Z,98902.38
2019-02-10T13:51:13.160Z,98898.15
2019-02-10T13:55:17.751Z,98876.44
2019-02-10T13:59:22.070Z,98859.06
2019-02-10T14:03:26.341Z,98851.30
2019-02-10T14:07:31.659Z,98840.00
2019-02-10T14:11:35.856Z,98838.27
2019-02-10T14:15:40.759Z,98828.30
2019-02-10T14:19:44.967Z,98820.01
2019-02-10T14:23:49.273Z,98807.41
2019-02-10T14:27:53.760Z,98801.73
2019-02-10T14:31:59.016Z,98790.85
2019-02-10T14:36:03.235Z,98775.61
2019-02-10T14:40:07.465Z,98754.70
2019-02-10T14:44:12.197Z,98758.20
2019-02-10T14:48:17.143Z,98762.97
2019-02-10T14:52:21.364Z,98756.44
2019-02-10T14:56:25.558Z,98741.61
2019-02-10T15:00:30.947Z,98723.28
2019-02-10T15:04:37.019Z,98708.45
2019-02-10T15:08:41.228Z,98702.33
2019-02-10T15:12:47.464Z,98685.75
2019-02-10T15:16:53.989Z,98656.92
2019-02-10T15:20:58.202Z,98636.87
2019-02-10T15:25:02.461Z,98625.55
2019-02-10T15:29:06.681Z,98619.41
2019-02-10T15:33:10.880Z,98605.91
2019-02-10T15:37:15.106Z,98614.17
2019-02-10T15:41:19.333Z,98604.15
2019-02-10T15:45:23.571Z,98605.01
2019-02-10T15:49:28.865Z,98597.59
2019-02-10T15:53:33.078Z,98595.84
2019-02-10T15:57:37.287Z,98577.92
2019-02-10T16:01:41.513Z,98559.19
2019-02-10T16:05:45.789Z,98548.71
2019-02-10T16:09:49.955Z,98534.77
2019-02-10T16:13:54.174Z,98531.75
2019-02-10T16:17:58.474Z,98525.67
2019-02-10T16:22:02.681Z,98507.41
2019-02-10T16:26:06.871Z,98525.77
2019-02-10T16:30:12.402Z,98517.95
2019-02-10T16:34:16.623Z,98500.95
2019-02-10T16:38:20.893Z,98502.30
2019-02-10T16:42:25.122Z,98494.89
2019-02-10T16:46:29.395Z,98487.94
2019-02-10T16:50:33.737Z,98473.16
2019-02-10T16:54:37.954Z,98447.05
2019-02-10T16:58:42.168Z,98443.12
2019-02-10T17:02:46.415Z,98447.05
2019-02-10T17:06:51.010Z,98437.03
2019-02-10T17:10:55.346Z,98422.24
2019-02-10T17:14:59.768Z,98428.34
2019-02-10T17:19:03.971Z,98419.66
2019-02-10T17:23:08.164Z,98425.31
2019-02-10T17:27:12.346Z,98418.34
2019-02-10T17:31:16.546Z,98417.47
2019-02-10T17:35:20.755Z,98418.77
2019-02-10T17:39:25.488Z,98407.47
2019-02-10T17:43:29.707Z,98402.25
2019-02-10T17:47:33.871Z,98402.69
2019-02-10T17:51:38.116Z,98406.12
2019-02-10T17:55:42.368Z,98395.72
2019-02-10T17:59:46.572Z,98380.92
2019-02-10T18:03:50.817Z,98377.86
2019-02-10T18:07:54.979Z,98375.23
2019-02-10T18:11:59.220Z,98374.80
2019-02-10T18:16:31.848Z,98358.27
2019-02-10T18:20:53.616Z,98359.12
2019-02-10T18:25:26.045Z,98340.85
2019-02-10T18:29:48.527Z,98335.20
2019-02-10T18:34:07.233Z,98325.63
2019-02-10T18:38:32.977Z,98323.88
2019-02-10T18:42:47.167Z,98321.73
2019-02-10T18:47:22.366Z,98310.84
2019-02-10T18:51:32.081Z,98308.67
2019-02-10T18:55:50.040Z,98304.77
2019-02-10T19:00:11.860Z,98301.70
2019-02-10T19:04:34.286Z,98297.38
2019-02-10T19:08:50.345Z,98301.73
2019-02-10T19:13:04.705Z,98306.06
2019-02-10T19:17:27.838Z,98312.15
2019-02-10T19:21:40.628Z,98333.03
2019-02-10T19:26:12.658Z,98339.98
2019-02-10T19:30:27.557Z,98338.25
2019-02-10T19:34:54.698Z,98336.49
2019-02-10T19:39:10.555Z,98341.27
2019-02-10T19:43:32.696Z,98332.98
2019-02-10T19:47:55.847Z,98356.02
2019-02-10T19:52:24.847Z,98353.83
2019-02-10T19:56:39.590Z,98342.50
2019-02-10T20:01:09.046Z,98349.44
2019-02-10T20:05:25.630Z,98367.64
2019-02-10T20:09:47.520Z,98354.61
2019-02-10T20:13:59.732Z,98355.92
2019-02-10T20:18:25.921Z,98343.34
2019-02-10T20:28:07.617Z,98352.53
2019-02-10T20:32:18.376Z,98364.67
2019-02-10T20:36:38.382Z,98355.98
2019-02-10T20:41:09.029Z,98354.23
2019-02-10T20:45:33.449Z,98359.91
2019-02-10T20:49:56.703Z,98362.08
2019-02-10T20:54:33.091Z,98369.47
2019-02-10T20:59:02.428Z,98366.43
2019-02-10T21:03:27.825Z,98358.60
2019-02-10T21:07:49.648Z,98330.80
2019-02-10T21:12:08.828Z,98306.89
2019-02-10T21:16:35.025Z,98311.27
2019-02-10T21:20:54.766Z,98339.48
2019-02-10T21:25:15.139Z,98358.14
2019-02-10T21:29:53.547Z,98375.97
2019-02-10T21:34:03.723Z,98392.45
2019-02-10T21:38:30.287Z,98425.91
2019-02-10T21:42:42.706Z,98449.38
2019-02-10T21:47:15.203Z,98475.44
2019-02-10T21:51:19.535Z,98521.51
2019-02-10T21:55:23.766Z,98514.53
2019-02-10T21:59:28.705Z,98648.79
2019-02-10T22:03:33.167Z,98656.62
2019-02-10T22:07:37.507Z,98731.42
2019-02-10T22:11:41.857Z,98731.03
2019-02-10T22:15:46.108Z,98743.64
2019-02-10T22:19:50.368Z,98754.08
2019-02-10T22:23:54.590Z,98750.59
2019-02-10T22:27:58.852Z,98744.88
2019-02-10T22:32:03.385Z,98738.80
2019-02-10T22:36:07.690Z,98727.09
2019-02-10T22:40:12.279Z,98724.48
2019-02-10T22:44:16.564Z,98722.31
2019-02-10T22:48:20.789Z,98694.95
2019-02-10T22:52:24.977Z,98682.38
2019-02-10T22:56:29.233Z,98673.73
2019-02-10T23:00:53.378Z,98714.18
2019-02-10T23:04:58.736Z,98709.41
2019-02-10T23:09:05.003Z,98712.05
2019-02-10T23:13:09.244Z,98688.14
2019-02-10T23:17:13.803Z,98697.77
2019-02-10T23:21:18.387Z,98695.23
2019-02-10T23:25:22.558Z,98687.90
2019-02-10T23:29:26.763Z,98688.84
2019-02-10T23:33:30.975Z,98686.72
2019-02-10T23:37:36.085Z,98691.56
2019-02-10T23:41:40.325Z,98698.56
2019-02-10T23:45:44.547Z,98705.53
2019-02-10T23:49:48.748Z,98713.42
2019-02-10T23:53:52.993Z,98707.37
2019-02-10T23:57:57.214Z,98701.73
